OIII/THR METAR and TAF weather

Enter ICAO airport designator
Station Type Date Time Source
OIII METAR 2021/09/25 12:30 UTC NOAA

OIII 251230Z 28006KT CAVOK 33/M06 Q1012 A2990


Station Type Date Time Source
OIII Decoded METAR 2021/09/25 12:30 UTC NOAA

Tehran-Mehrabad, Iran (OIII) 35-41N 051-21E 1191M
Sep 25, 2021 - 08:30 AM EDT / 2021.09.25 1230 UTC
Wind: from the W (280 degrees) at 7 MPH (6 KT):0
Visibility: greater than 7 mile(s):0
Temperature: 91 F (33 C)
Dew Point: 21 F (-6 C)
Relative Humidity: 7%
Pressure (altimeter): 29.9 in. Hg (1012 hPa)
ob: OIII 251230Z 28006KT CAVOK 33/M06 Q1012 A2990
cycle: 12

Station Type Date Time Source
OIII TAF 2021/09/25 12:21 UTC NOAA

TAF OIII 251130Z 2512/2618 34010KT 8000 NSC
TEMPO 2512/2515 25014G26KT PROB40
TEMPO 2602/2606 5000 HZ
TEMPO 2606/2615 25018G26KT

Example: see airport list